createdAt,value
2023-05-14T00:01:08.155Z,100221.75
2023-05-14T00:03:36.909Z,100227.81
2023-05-14T00:06:04.149Z,100216.78
2023-05-14T00:08:31.212Z,100215.22
2023-05-14T00:10:58.945Z,100221.13
2023-05-14T00:13:26.168Z,100230.09
2023-05-14T00:15:53.229Z,100212.22
2023-05-14T00:18:20.334Z,100215.59
2023-05-14T00:20:47.369Z,100213.78
2023-05-14T00:23:14.509Z,100216.78
2023-05-14T00:25:41.622Z,100206.88
2023-05-14T00:28:08.675Z,100216.78
2023-05-14T00:30:35.732Z,100223.78
2023-05-14T00:33:02.882Z,100193.91
2023-05-14T00:35:30.161Z,100200.84
2023-05-14T00:37:57.303Z,100214.16
2023-05-14T00:40:26.003Z,100198.38
2023-05-14T00:42:53.996Z,100200.22
2023-05-14T00:45:21.156Z,100205.44
2023-05-14T00:47:49.321Z,100205.13
2023-05-14T00:50:17.914Z,100202.59
2023-05-14T00:52:44.989Z,100197.81
2023-05-14T00:55:16.334Z,100205.28
2023-05-14T00:57:43.602Z,100206.28
2023-05-14T01:00:11.064Z,100211.31
2023-05-14T01:02:38.508Z,100202.06
2023-05-14T01:05:06.491Z,100209.34
2023-05-14T01:07:36.835Z,100212.72
2023-05-14T01:10:13.758Z,100203.41
2023-05-14T01:12:43.936Z,100193.25
2023-05-14T01:15:12.578Z,100201.16
2023-05-14T01:17:42.896Z,100192.56
2023-05-14T01:20:10.595Z,100191.88
2023-05-14T01:22:37.790Z,100200.91
2023-05-14T01:25:06.008Z,100206.66
2023-05-14T01:27:45.534Z,100205.53
2023-05-14T01:30:16.851Z,100189.25
2023-05-14T01:32:47.010Z,100190.56
2023-05-14T01:35:14.364Z,100190.56
2023-05-14T01:37:41.875Z,100189.19
2023-05-14T01:40:11.310Z,100185.13
2023-05-14T01:42:38.577Z,100171.47
2023-05-14T01:45:05.849Z,100177.84
2023-05-14T01:47:32.896Z,100180.66
2023-05-14T01:50:00.036Z,100176.28
2023-05-14T01:52:27.187Z,100172.22
2023-05-14T01:54:54.338Z,100168.59
2023-05-14T01:57:21.482Z,100182.81
2023-05-14T01:59:48.520Z,100175.47
2023-05-14T02:02:15.560Z,100164.47
2023-05-14T02:04:42.637Z,100162.09
2023-05-14T02:07:09.686Z,100157.03
2023-05-14T02:09:36.752Z,100151.56
2023-05-14T02:12:03.865Z,100151.75
2023-05-14T02:14:31.046Z,100148.91
2023-05-14T02:16:58.194Z,100148.66
2023-05-14T02:19:25.345Z,100162.28
2023-05-14T02:21:52.474Z,100150.34
2023-05-14T02:24:19.502Z,100148.19
2023-05-14T02:26:46.668Z,100152.94
2023-05-14T02:29:13.940Z,100148.44
2023-05-14T02:31:41.069Z,100154.03
2023-05-14T02:34:08.126Z,100152.34
2023-05-14T02:36:35.269Z,100156.03
2023-05-14T02:39:02.456Z,100151.66
2023-05-14T02:41:29.540Z,100159.09
2023-05-14T02:43:56.621Z,100155.72
2023-05-14T02:46:23.664Z,100137.19
2023-05-14T02:48:50.729Z,100132.97
2023-05-14T02:51:19.387Z,100139.00
2023-05-14T02:53:46.477Z,100132.81
2023-05-14T02:56:13.485Z,100127.88
2023-05-14T02:58:40.524Z,100127.81
2023-05-14T03:01:07.829Z,100136.94
2023-05-14T03:03:36.022Z,100127.34
2023-05-14T03:06:03.678Z,100121.53
2023-05-14T03:08:30.806Z,100129.00
2023-05-14T03:10:57.949Z,100131.78
2023-05-14T03:13:25.678Z,100142.19
2023-05-14T03:15:55.008Z,100141.22
2023-05-14T03:18:22.709Z,100139.34
2023-05-14T03:20:49.793Z,100141.50
2023-05-14T03:23:16.851Z,100151.22
2023-05-14T03:25:43.910Z,100137.88
2023-05-14T03:28:10.994Z,100132.00
2023-05-14T03:30:38.051Z,100138.03
2023-05-14T03:33:05.252Z,100143.94
2023-05-14T03:35:32.354Z,100143.47
2023-05-14T03:37:59.834Z,100147.00
2023-05-14T03:40:27.093Z,100147.16
2023-05-14T03:42:54.322Z,100145.31
2023-05-14T03:45:21.466Z,100135.91
2023-05-14T03:47:48.642Z,100140.09
2023-05-14T03:50:15.747Z,100148.84
2023-05-14T03:52:43.606Z,100146.84
2023-05-14T03:55:10.718Z,100134.75
2023-05-14T03:57:37.804Z,100136.44
2023-05-14T04:00:05.029Z,100140.19
2023-05-14T04:02:43.879Z,100128.63
2023-05-14T04:05:11.238Z,100132.84
2023-05-14T04:07:38.338Z,100142.44
2023-05-14T04:10:05.711Z,100148.47
2023-05-14T04:12:35.352Z,100156.59
2023-05-14T04:15:03.138Z,100173.34
2023-05-14T04:17:30.301Z,100176.53
2023-05-14T04:19:57.368Z,100184.53
2023-05-14T04:22:24.651Z,100179.69
2023-05-14T04:24:52.054Z,100186.88
2023-05-14T04:27:22.263Z,100194.16
2023-05-14T04:29:50.040Z,100200.75
2023-05-14T04:32:17.774Z,100218.97
2023-05-14T04:34:45.056Z,100217.69
2023-05-14T04:37:12.161Z,100226.06
2023-05-14T04:39:39.294Z,100238.56
2023-05-14T04:42:06.868Z,100244.38
2023-05-14T04:44:34.321Z,100281.19
2023-05-14T04:47:02.081Z,100280.75
2023-05-14T04:49:29.196Z,100349.19
2023-05-14T04:51:56.231Z,100416.91
2023-05-14T04:54:23.295Z,100426.78
2023-05-14T04:56:50.836Z,100380.16
2023-05-14T04:59:17.967Z,100360.69
2023-05-14T05:01:45.929Z,100259.41
2023-05-14T05:04:13.349Z,100216.84
2023-05-14T05:06:40.425Z,100169.00
2023-05-14T05:09:08.803Z,100110.78
2023-05-14T05:11:35.938Z,100076.19
2023-05-14T05:14:03.003Z,100079.41
2023-05-14T05:16:30.223Z,100101.63
2023-05-14T05:18:57.338Z,100118.09
2023-05-14T05:21:24.360Z,100131.22
2023-05-14T05:23:51.400Z,100132.03
2023-05-14T05:26:18.449Z,100119.44
2023-05-14T05:28:45.530Z,100135.94
2023-05-14T05:31:12.773Z,100137.25
2023-05-14T05:33:39.910Z,100121.28
2023-05-14T05:36:07.101Z,100136.41
2023-05-14T05:38:34.157Z,100107.50
2023-05-14T05:41:01.180Z,100140.59
2023-05-14T05:43:28.637Z,100189.00
2023-05-14T05:45:55.676Z,100148.91
2023-05-14T05:48:22.702Z,100112.63
2023-05-14T05:50:50.210Z,100137.28
2023-05-14T05:53:17.589Z,100122.66
2023-05-14T05:55:44.687Z,100071.25
2023-05-14T05:58:12.389Z,100035.50
2023-05-14T06:00:39.387Z,100045.25
2023-05-14T06:03:06.409Z,100067.75
2023-05-14T06:05:33.557Z,100037.34
2023-05-14T06:08:00.813Z,100039.72
2023-05-14T06:10:27.868Z,100036.84
2023-05-14T06:12:54.909Z,100015.50
2023-05-14T06:15:22.535Z,100008.63
2023-05-14T06:17:49.603Z,99992.16
2023-05-14T06:20:17.092Z,100030.78
2023-05-14T06:22:44.333Z,99986.94
2023-05-14T06:25:11.699Z,99999.53
2023-05-14T06:27:38.823Z,99979.38
2023-05-14T06:30:07.008Z,99985.09
2023-05-14T06:32:34.287Z,99986.41
2023-05-14T06:35:01.421Z,99983.56
2023-05-14T06:37:28.527Z,99980.53
2023-05-14T06:39:57.664Z,99992.63
2023-05-14T06:42:24.947Z,100000.16
2023-05-14T06:44:52.038Z,100012.44
2023-05-14T06:47:19.117Z,100030.88
2023-05-14T06:49:46.301Z,100030.88
2023-05-14T06:52:13.346Z,100034.06
2023-05-14T06:54:40.491Z,100035.88
2023-05-14T06:57:07.498Z,100033.03
2023-05-14T06:59:34.511Z,100025.31
2023-05-14T07:02:02.232Z,100065.09
2023-05-14T07:04:29.372Z,100065.72
2023-05-14T07:06:56.425Z,100060.34
2023-05-14T07:09:23.465Z,100057.28
2023-05-14T07:11:50.490Z,100039.28
2023-05-14T07:14:17.598Z,100035.75
2023-05-14T07:16:45.791Z,99997.16
2023-05-14T07:19:12.988Z,100011.19
2023-05-14T07:21:40.088Z,100026.28
2023-05-14T07:24:09.124Z,100027.88
2023-05-14T07:26:36.183Z,99997.31
2023-05-14T07:29:03.283Z,100015.75
2023-05-14T07:31:30.400Z,99991.13
2023-05-14T07:33:57.736Z,99974.34
2023-05-14T07:36:25.118Z,99961.16
2023-05-14T07:38:52.198Z,99963.59
2023-05-14T07:41:19.200Z,99939.69
2023-05-14T07:43:46.316Z,99936.09
2023-05-14T07:46:13.403Z,99963.22
2023-05-14T07:48:40.460Z,99936.88
2023-05-14T07:51:07.561Z,99936.25
2023-05-14T07:53:34.608Z,99944.84
2023-05-14T07:56:01.740Z,99964.81
2023-05-14T07:58:28.893Z,99963.88
2023-05-14T08:00:56.650Z,99943.56
2023-05-14T08:03:23.897Z,99927.84
2023-05-14T08:05:52.520Z,99944.22
2023-05-14T08:08:19.716Z,99930.41
2023-05-14T08:10:46.787Z,99904.00
2023-05-14T08:13:13.815Z,99876.72
2023-05-14T08:15:40.839Z,99804.16
2023-05-14T08:18:07.913Z,99796.47
2023-05-14T08:20:35.002Z,99824.47
2023-05-14T08:23:02.054Z,99795.03
2023-05-14T08:25:29.109Z,99739.81
2023-05-14T08:27:56.252Z,99709.34
2023-05-14T08:30:23.609Z,99736.19
2023-05-14T08:32:50.944Z,99707.41
2023-05-14T08:35:18.150Z,99733.41
2023-05-14T08:37:45.666Z,99705.66
2023-05-14T08:40:12.907Z,99685.97
2023-05-14T08:42:44.829Z,99678.16
2023-05-14T08:45:16.879Z,99600.75
2023-05-14T08:47:47.204Z,99541.44
2023-05-14T08:50:14.502Z,99503.44
2023-05-14T08:52:41.524Z,99494.31
2023-05-14T08:55:09.634Z,99493.78
2023-05-14T08:57:36.726Z,99474.94
2023-05-14T09:00:14.230Z,99485.84
2023-05-14T09:02:42.226Z,99500.69
2023-05-14T09:05:09.817Z,99423.03
2023-05-14T09:07:36.898Z,99362.88
2023-05-14T09:10:04.559Z,99338.94
2023-05-14T09:12:31.713Z,99362.59
2023-05-14T09:14:58.697Z,99345.72
2023-05-14T09:17:26.796Z,99360.38
2023-05-14T09:19:54.121Z,99377.94
2023-05-14T09:22:21.262Z,99280.31
2023-05-14T09:25:02.164Z,99158.56
2023-05-14T09:27:32.154Z,99042.28
2023-05-14T09:30:12.585Z,99047.56
2023-05-14T09:32:40.506Z,98997.81
2023-05-14T09:35:17.086Z,98973.22
2023-05-14T09:37:46.253Z,98938.31
2023-05-14T09:40:13.622Z,98850.03
2023-05-14T09:42:41.317Z,98821.06
2023-05-14T09:45:09.528Z,98658.63
2023-05-14T09:47:37.338Z,98642.38
2023-05-14T09:50:05.404Z,98615.00
2023-05-14T09:52:32.932Z,98661.56
2023-05-14T09:55:00.317Z,98634.91
2023-05-14T09:57:27.803Z,98584.53
2023-05-14T09:59:54.853Z,98491.91
2023-05-14T10:02:22.275Z,98466.31
2023-05-14T10:04:53.768Z,98369.66
2023-05-14T10:07:23.136Z,98410.50
2023-05-14T10:09:54.582Z,98386.19
2023-05-14T10:12:22.636Z,98424.75
2023-05-14T10:14:53.240Z,98385.81
2023-05-14T10:17:21.707Z,98343.50
2023-05-14T10:19:53.126Z,98349.66
2023-05-14T10:22:23.552Z,98259.25
2023-05-14T10:24:53.983Z,98284.81
2023-05-14T10:27:21.853Z,98190.72
2023-05-14T10:29:55.547Z,98183.06
2023-05-14T10:32:25.153Z,98170.50
2023-05-14T10:34:53.202Z,98073.00
2023-05-14T10:37:24.810Z,97976.22
2023-05-14T10:40:07.112Z,97929.09
2023-05-14T10:42:35.869Z,97907.16
2023-05-14T10:45:07.389Z,97903.53
2023-05-14T10:47:44.977Z,97919.00
2023-05-14T10:50:13.029Z,97862.41
2023-05-14T10:52:43.623Z,97856.94
2023-05-14T10:55:13.430Z,97755.72
2023-05-14T10:57:42.492Z,97695.34
2023-05-14T11:00:10.922Z,97716.06
2023-05-14T11:02:39.227Z,97697.09
2023-05-14T11:05:08.561Z,97678.50
2023-05-14T11:07:36.723Z,97677.78
2023-05-14T11:10:08.130Z,97700.72
2023-05-14T11:12:36.312Z,97642.38
2023-05-14T11:15:06.224Z,97640.19
2023-05-14T11:17:35.053Z,97539.63
2023-05-14T11:20:02.185Z,97540.88
2023-05-14T11:22:29.491Z,97562.59
2023-05-14T11:24:56.638Z,97563.44
2023-05-14T11:27:24.064Z,97488.22
2023-05-14T11:29:51.151Z,97511.06
2023-05-14T11:32:18.836Z,97440.75
2023-05-14T11:34:46.136Z,97473.91
2023-05-14T11:37:16.389Z,97402.66
2023-05-14T11:39:50.734Z,97345.56
2023-05-14T11:42:19.575Z,97378.06
2023-05-14T11:44:47.573Z,97360.34
2023-05-14T11:47:15.619Z,97289.00
2023-05-14T11:49:42.771Z,97270.53
2023-05-14T11:52:11.618Z,97256.63
2023-05-14T11:54:38.720Z,97199.13
2023-05-14T11:57:10.498Z,97200.81
2023-05-14T11:59:37.878Z,97188.28
2023-05-14T12:02:05.501Z,97125.25
2023-05-14T12:04:32.670Z,97090.53
2023-05-14T12:07:00.343Z,97082.13
2023-05-14T12:09:27.536Z,97086.38
2023-05-14T12:11:54.564Z,97123.63
2023-05-14T12:14:22.807Z,97042.41
2023-05-14T12:16:50.536Z,96984.59
2023-05-14T12:19:19.158Z,97006.19
2023-05-14T12:21:47.686Z,96939.72
2023-05-14T12:24:16.638Z,96914.41
2023-05-14T12:26:47.417Z,96927.19
2023-05-14T12:29:19.782Z,96951.59
2023-05-14T12:31:47.632Z,96933.06
2023-05-14T12:34:15.380Z,96975.66
2023-05-14T12:36:42.738Z,96988.13
2023-05-14T12:39:10.693Z,97017.53
2023-05-14T12:41:37.884Z,97012.22
2023-05-14T12:44:05.248Z,96958.84
2023-05-14T12:46:33.156Z,96958.72
2023-05-14T12:49:00.215Z,96969.50
2023-05-14T12:51:27.256Z,96959.66
2023-05-14T12:53:54.345Z,96949.91
2023-05-14T12:56:21.983Z,96930.59
2023-05-14T12:58:49.062Z,96944.34
2023-05-14T13:01:16.195Z,96938.75
2023-05-14T13:03:43.330Z,96941.47
2023-05-14T13:06:10.465Z,96948.19
2023-05-14T13:08:38.933Z,96950.34
2023-05-14T13:11:06.753Z,96920.41
2023-05-14T13:13:33.822Z,96931.28
2023-05-14T13:16:00.931Z,96948.16
2023-05-14T13:18:28.009Z,96910.31
2023-05-14T13:20:55.204Z,96913.56
2023-05-14T13:23:26.075Z,96890.72
2023-05-14T13:25:53.213Z,96831.16
2023-05-14T13:28:20.329Z,96818.59
2023-05-14T13:31:03.448Z,96774.16
2023-05-14T13:33:30.723Z,96815.81
2023-05-14T13:35:57.859Z,96836.84
2023-05-14T13:38:24.898Z,96849.09
2023-05-14T13:40:52.024Z,96771.31
2023-05-14T13:43:19.160Z,96760.44
2023-05-14T13:45:48.413Z,96754.34
2023-05-14T13:48:15.590Z,96785.97
2023-05-14T13:50:42.651Z,96808.25
2023-05-14T13:53:09.729Z,96806.53
2023-05-14T13:55:36.813Z,96791.03
2023-05-14T13:58:04.313Z,96698.59
2023-05-14T14:00:31.299Z,96667.44
2023-05-14T14:02:58.338Z,96593.38
2023-05-14T14:05:28.365Z,96507.19
2023-05-14T14:08:01.163Z,96485.00
2023-05-14T14:10:36.471Z,96508.59
2023-05-14T14:13:03.526Z,96532.66
2023-05-14T14:15:30.552Z,96565.63
2023-05-14T14:17:57.651Z,96567.03
2023-05-14T14:20:24.671Z,96532.06
2023-05-14T14:22:51.705Z,96477.41
2023-05-14T14:25:18.725Z,96512.72
2023-05-14T14:27:47.402Z,96477.66
2023-05-14T14:30:17.479Z,96474.94
2023-05-14T14:32:48.404Z,96467.88
2023-05-14T14:35:16.463Z,96501.03
2023-05-14T14:37:45.581Z,96471.47
2023-05-14T14:40:12.693Z,96435.31
2023-05-14T14:42:39.773Z,96378.81
2023-05-14T14:45:07.368Z,96362.59
2023-05-14T14:47:34.657Z,96344.78
2023-05-14T14:50:01.876Z,96354.97
2023-05-14T14:52:29.232Z,96375.78
2023-05-14T14:54:56.957Z,96373.72
2023-05-14T14:57:24.043Z,96387.75
2023-05-14T14:59:51.054Z,96395.63
2023-05-14T15:02:18.142Z,96398.41
2023-05-14T15:04:45.258Z,96355.16
2023-05-14T15:07:12.278Z,96348.75
2023-05-14T15:09:39.420Z,96371.09
2023-05-14T15:12:06.904Z,96382.50
2023-05-14T15:14:33.986Z,96326.00
2023-05-14T15:17:02.113Z,96334.50
2023-05-14T15:19:29.649Z,96366.97
2023-05-14T15:21:56.705Z,96425.06
2023-05-14T15:24:25.060Z,96466.31
2023-05-14T15:26:53.939Z,96495.47
2023-05-14T15:29:41.463Z,96512.72
2023-05-14T15:32:08.698Z,96540.84
2023-05-14T15:34:35.794Z,96570.34
2023-05-14T15:37:02.837Z,96596.34
2023-05-14T15:39:31.415Z,96576.91
2023-05-14T15:41:58.572Z,96565.28
2023-05-14T15:44:26.355Z,96576.38
2023-05-14T15:46:53.459Z,96599.31
2023-05-14T15:49:20.682Z,96598.81
2023-05-14T15:51:47.734Z,96615.94
2023-05-14T15:54:14.851Z,96676.59
2023-05-14T15:56:41.897Z,96825.09
2023-05-14T15:59:08.973Z,96976.22
2023-05-14T16:01:36.123Z,97074.06
2023-05-14T16:04:05.018Z,97196.88
2023-05-14T16:06:33.676Z,97208.03
2023-05-14T16:09:02.715Z,97314.06
2023-05-14T16:11:30.047Z,97382.19
2023-05-14T16:13:58.395Z,97404.41
2023-05-14T16:16:25.532Z,97468.59
2023-05-14T16:18:52.615Z,97501.88
2023-05-14T16:21:19.703Z,97553.72
2023-05-14T16:23:46.739Z,97622.94
2023-05-14T16:26:13.822Z,97667.13
2023-05-14T16:28:42.687Z,97736.41
2023-05-14T16:31:12.549Z,97759.00
2023-05-14T16:33:42.338Z,97804.44
2023-05-14T16:36:09.372Z,97798.78
2023-05-14T16:38:41.451Z,97831.88
2023-05-14T16:41:15.621Z,97827.63
2023-05-14T16:43:44.810Z,97885.50
2023-05-14T16:46:12.433Z,97912.75
2023-05-14T16:48:39.890Z,97908.22
2023-05-14T16:51:06.946Z,97953.25
2023-05-14T16:53:34.034Z,97984.13
2023-05-14T16:56:01.191Z,98029.00
2023-05-14T16:58:28.457Z,98033.00
2023-05-14T17:00:55.521Z,98041.34
2023-05-14T17:03:22.639Z,98055.06
2023-05-14T17:05:49.730Z,98051.03
2023-05-14T17:08:16.950Z,98092.88
2023-05-14T17:10:43.956Z,98091.84
2023-05-14T17:13:11.017Z,98104.34
2023-05-14T17:15:40.134Z,98100.16
2023-05-14T17:18:07.373Z,98137.38
2023-05-14T17:20:34.617Z,98118.38
2023-05-14T17:23:01.676Z,98146.47
2023-05-14T17:25:28.733Z,98178.19
2023-05-14T17:27:55.797Z,98193.31
2023-05-14T17:30:22.940Z,98214.47
2023-05-14T17:32:51.209Z,98222.06
2023-05-14T17:35:18.495Z,98233.28
2023-05-14T17:37:45.580Z,98247.34
2023-05-14T17:40:15.636Z,98269.13
2023-05-14T17:42:45.308Z,98245.97
2023-05-14T17:45:13.427Z,98259.94
2023-05-14T17:47:40.633Z,98286.84
2023-05-14T17:50:07.895Z,98303.09
2023-05-14T17:52:35.106Z,98320.03
2023-05-14T17:55:02.216Z,98331.66
2023-05-14T17:57:29.374Z,98331.00
2023-05-14T17:59:57.457Z,98364.34
2023-05-14T18:02:24.543Z,98373.63
2023-05-14T18:04:51.565Z,98369.13
2023-05-14T18:07:19.200Z,98366.44
2023-05-14T18:09:46.554Z,98383.00
2023-05-14T18:12:13.574Z,98366.81
2023-05-14T18:14:40.652Z,98387.28
2023-05-14T18:17:07.902Z,98393.28
2023-05-14T18:19:35.071Z,98372.56
2023-05-14T18:22:02.109Z,98406.16
2023-05-14T18:24:29.131Z,98418.72
2023-05-14T18:26:56.468Z,98414.72
2023-05-14T18:29:23.540Z,98439.41
2023-05-14T18:31:50.712Z,98471.66
2023-05-14T18:34:17.786Z,98474.97
2023-05-14T18:36:44.812Z,98464.34
2023-05-14T18:39:11.815Z,98464.19
2023-05-14T18:41:38.852Z,98461.31
2023-05-14T18:44:05.970Z,98471.66
2023-05-14T18:46:33.124Z,98463.78
2023-05-14T18:49:00.211Z,98477.06
2023-05-14T18:51:27.508Z,98468.97
2023-05-14T18:53:55.418Z,98452.84
2023-05-14T18:56:22.470Z,98455.59
2023-05-14T18:58:49.544Z,98462.25
2023-05-14T19:01:16.669Z,98463.34
2023-05-14T19:03:43.820Z,98465.31
2023-05-14T19:06:10.941Z,98476.78
2023-05-14T19:08:38.372Z,98469.72
2023-05-14T19:11:05.606Z,98662.91
2023-05-14T19:13:32.728Z,98682.34
2023-05-14T19:16:00.089Z,98681.78
2023-05-14T19:18:27.339Z,98691.31
2023-05-14T19:20:56.592Z,98697.75
2023-05-14T19:23:23.665Z,98710.00
2023-05-14T19:25:50.740Z,98710.22
2023-05-14T19:28:19.808Z,98704.19
2023-05-14T19:30:47.717Z,98693.88
2023-05-14T19:33:14.776Z,98738.81
2023-05-14T19:35:41.925Z,98767.41
2023-05-14T19:38:12.119Z,98867.09
2023-05-14T19:40:39.449Z,98846.09
2023-05-14T19:43:08.134Z,98895.81
2023-05-14T19:45:39.429Z,98914.84
2023-05-14T19:48:06.796Z,98962.88
2023-05-14T19:50:34.124Z,98974.66
2023-05-14T19:53:01.385Z,98986.38
2023-05-14T19:55:28.506Z,98999.03
2023-05-14T19:57:55.580Z,99031.22
2023-05-14T20:00:26.492Z,99035.28
2023-05-14T20:02:54.620Z,99053.69
2023-05-14T20:05:21.920Z,99077.00
2023-05-14T20:07:49.263Z,99133.66
2023-05-14T20:10:16.284Z,99151.50
2023-05-14T20:12:43.311Z,99113.69
2023-05-14T20:15:10.465Z,99165.94
2023-05-14T20:17:38.168Z,99169.81
2023-05-14T20:20:06.846Z,99166.53
2023-05-14T20:22:33.955Z,99168.47
2023-05-14T20:25:00.968Z,99169.56
2023-05-14T20:27:27.978Z,99162.97
2023-05-14T20:29:54.988Z,99171.69
2023-05-14T20:32:24.885Z,99167.50
2023-05-14T20:34:52.158Z,99172.88
2023-05-14T20:37:22.005Z,99178.66
2023-05-14T20:39:49.089Z,99164.91
2023-05-14T20:42:16.111Z,99184.22
2023-05-14T20:44:43.184Z,99204.56
2023-05-14T20:47:10.360Z,99201.69
2023-05-14T20:49:37.374Z,99183.38
2023-05-14T20:52:04.722Z,99157.66
2023-05-14T20:54:31.740Z,99185.19
2023-05-14T20:56:58.742Z,99232.63
2023-05-14T20:59:25.755Z,99271.66
2023-05-14T21:01:52.841Z,99270.84
2023-05-14T21:04:20.012Z,99270.00
2023-05-14T21:06:47.262Z,99267.38
2023-05-14T21:09:14.414Z,99289.88
2023-05-14T21:11:41.482Z,99293.47
2023-05-14T21:14:08.492Z,99290.97
2023-05-14T21:16:35.597Z,99284.75
2023-05-14T21:19:02.871Z,99293.84
2023-05-14T21:21:29.919Z,99299.56
2023-05-14T21:23:57.211Z,99325.09
2023-05-14T21:26:24.445Z,99334.00
2023-05-14T21:28:51.476Z,99351.59
2023-05-14T21:31:18.526Z,99343.34
2023-05-14T21:33:45.661Z,99355.59
2023-05-14T21:36:12.697Z,99372.94
2023-05-14T21:38:39.717Z,99390.47
2023-05-14T21:41:06.868Z,99409.47
2023-05-14T21:43:33.915Z,99427.63
2023-05-14T21:46:00.944Z,99458.69
2023-05-14T21:48:28.225Z,99471.97
2023-05-14T21:50:55.820Z,99481.88
2023-05-14T21:53:22.847Z,99492.16
2023-05-14T21:55:49.985Z,99521.00
2023-05-14T21:58:17.033Z,99529.06
2023-05-14T22:00:44.085Z,99536.84
2023-05-14T22:03:11.467Z,99550.19
2023-05-14T22:05:38.756Z,99573.53
2023-05-14T22:08:06.049Z,99599.72
2023-05-14T22:10:34.513Z,99623.41
2023-05-14T22:13:01.567Z,99628.28
2023-05-14T22:15:28.571Z,99630.31
2023-05-14T22:17:55.773Z,99645.25
2023-05-14T22:20:22.855Z,99660.00
2023-05-14T22:22:50.048Z,99657.81
2023-05-14T22:25:17.089Z,99656.13
2023-05-14T22:27:44.181Z,99665.88
2023-05-14T22:30:11.367Z,99678.31
2023-05-14T22:32:38.506Z,99682.69
2023-05-14T22:35:05.602Z,99679.66
2023-05-14T22:37:32.629Z,99671.31
2023-05-14T22:39:59.736Z,99671.19
2023-05-14T22:42:27.231Z,99698.91
2023-05-14T22:44:54.255Z,99723.09
2023-05-14T22:47:21.424Z,99732.47
2023-05-14T22:49:48.620Z,99729.50
2023-05-14T22:52:15.757Z,99528.84
2023-05-14T22:54:43.031Z,99525.84
2023-05-14T22:57:10.354Z,99520.81
2023-05-14T22:59:37.402Z,99532.72
2023-05-14T23:02:04.588Z,99530.03
2023-05-14T23:04:31.708Z,99544.97
2023-05-14T23:06:58.866Z,99555.84
2023-05-14T23:09:25.920Z,99533.38
2023-05-14T23:11:53.141Z,99536.75
2023-05-14T23:14:20.189Z,99536.06
2023-05-14T23:16:47.329Z,99566.84
2023-05-14T23:19:14.485Z,99580.59
2023-05-14T23:21:41.613Z,99587.31
2023-05-14T23:24:08.745Z,99587.84
2023-05-14T23:26:35.786Z,99603.13
2023-05-14T23:29:02.909Z,99605.16
2023-05-14T23:31:29.997Z,99607.84
2023-05-14T23:33:57.105Z,99670.38
2023-05-14T23:36:24.357Z,99675.59
2023-05-14T23:38:51.672Z,99671.38
2023-05-14T23:41:18.805Z,99726.00
2023-05-14T23:43:45.940Z,99735.88
2023-05-14T23:46:13.184Z,99732.19
2023-05-14T23:48:40.335Z,99729.19
2023-05-14T23:51:07.381Z,99735.72
2023-05-14T23:53:34.410Z,99740.63
2023-05-14T23:56:01.641Z,99743.44
2023-05-14T23:58:30.011Z,99738.75
